createdAt,value
2017-05-09T00:01:13.344Z,28.42
2017-05-09T00:02:13.146Z,28.81
2017-05-09T00:03:13.081Z,28.42
2017-05-09T00:04:13.017Z,28.62
2017-05-09T00:05:12.954Z,28.42
2017-05-09T00:06:12.991Z,28.42
2017-05-09T00:07:12.833Z,28.72
2017-05-09T00:08:12.764Z,28.72
2017-05-09T00:09:12.704Z,28.33
2017-05-09T00:10:12.639Z,28.52
2017-05-09T00:11:12.576Z,28.62
2017-05-09T00:12:12.510Z,28.33
2017-05-09T00:13:12.452Z,28.72
2017-05-09T00:14:12.387Z,28.33
2017-05-09T00:15:12.324Z,28.52
2017-05-09T00:16:12.259Z,28.42
2017-05-09T00:17:12.197Z,28.33
2017-05-09T00:18:12.130Z,28.42
2017-05-09T00:19:12.069Z,28.42
2017-05-09T00:20:12.008Z,28.33
2017-05-09T00:21:11.941Z,28.33
2017-05-09T00:22:11.566Z,28.33
2017-05-09T00:23:11.813Z,28.33
2017-05-09T00:24:11.748Z,28.42
2017-05-09T00:25:12.058Z,28.33
2017-05-09T00:26:11.624Z,28.04
2017-05-09T00:27:11.559Z,28.62
2017-05-09T00:28:11.501Z,28.52
2017-05-09T00:29:11.811Z,28.52
2017-05-09T00:30:11.552Z,28.62
2017-05-09T00:31:11.307Z,28.62
2017-05-09T00:32:11.247Z,28.62
2017-05-09T00:33:11.179Z,28.62
2017-05-09T00:34:11.114Z,28.62
2017-05-09T00:35:11.052Z,28.52
2017-05-09T00:36:10.988Z,28.52
2017-05-09T00:37:10.615Z,28.42
2017-05-09T00:38:10.861Z,28.52
2017-05-09T00:39:10.490Z,28.62
2017-05-09T00:40:10.744Z,28.42
2017-05-09T00:41:10.668Z,28.14
2017-05-09T00:42:10.297Z,28.33
2017-05-09T00:43:10.545Z,28.14
2017-05-09T00:44:10.170Z,28.33
2017-05-09T00:45:10.107Z,28.23
2017-05-09T00:46:10.352Z,27.94
2017-05-09T00:47:09.980Z,28.14
2017-05-09T00:48:09.921Z,28.14
2017-05-09T00:49:10.165Z,27.94
2017-05-09T00:50:10.103Z,28.23
2017-05-09T00:51:09.758Z,28.23
2017-05-09T00:52:09.970Z,28.42
2017-05-09T00:53:09.598Z,28.23
2017-05-09T00:54:09.848Z,28.23
2017-05-09T00:55:09.781Z,27.94
2017-05-09T00:56:09.717Z,28.23
2017-05-09T00:57:09.655Z,28.33
2017-05-09T00:58:09.590Z,28.23
2017-05-09T00:59:09.528Z,28.23
2017-05-09T01:00:09.464Z,28.23
2017-05-09T01:01:09.403Z,28.23
2017-05-09T01:02:09.334Z,28.04
2017-05-09T01:03:09.275Z,28.14
2017-05-09T01:04:09.209Z,28.23
2017-05-09T01:05:09.147Z,28.14
2017-05-09T01:06:09.080Z,28.14
2017-05-09T01:07:09.018Z,28.23
2017-05-09T01:08:08.956Z,28.23
2017-05-09T01:09:08.894Z,27.85
2017-05-09T01:10:08.516Z,27.85
2017-05-09T01:11:08.766Z,28.23
2017-05-09T01:12:08.701Z,27.75
2017-05-09T01:13:08.635Z,27.66
2017-05-09T01:14:08.574Z,28.04
2017-05-09T01:15:08.512Z,28.14
2017-05-09T01:16:08.444Z,27.37
2017-05-09T01:17:08.380Z,27.66
2017-05-09T01:18:08.318Z,27.66
2017-05-09T01:19:08.258Z,27.56
2017-05-09T01:20:08.193Z,27.66
2017-05-09T01:21:08.128Z,27.66
2017-05-09T01:22:08.064Z,27.56
2017-05-09T01:23:08.002Z,27.46
2017-05-09T01:24:07.947Z,27.85
2017-05-09T01:25:07.876Z,27.94
2017-05-09T01:26:07.814Z,27.94
2017-05-09T01:27:07.749Z,27.37
2017-05-09T01:28:07.686Z,27.56
2017-05-09T01:29:07.623Z,27.46
2017-05-09T01:30:07.557Z,27.75
2017-05-09T01:31:07.501Z,27.75
2017-05-09T01:32:07.429Z,27.66
2017-05-09T01:33:07.371Z,27.66
2017-05-09T01:34:07.306Z,27.66
2017-05-09T01:35:07.237Z,27.66
2017-05-09T01:36:07.180Z,27.27
2017-05-09T01:37:07.117Z,27.27
2017-05-09T01:38:07.051Z,27.75
2017-05-09T01:39:06.986Z,27.75
2017-05-09T01:40:06.923Z,27.75
2017-05-09T01:41:06.860Z,27.75
2017-05-09T01:42:06.840Z,27.17
2017-05-09T01:43:06.732Z,27.75
2017-05-09T01:44:06.671Z,27.17
2017-05-09T01:45:06.604Z,27.37
2017-05-09T01:46:06.548Z,27.17
2017-05-09T01:47:06.477Z,27.46
2017-05-09T01:48:06.418Z,27.27
2017-05-09T01:49:06.721Z,27.37
2017-05-09T01:50:06.287Z,27.37
2017-05-09T01:51:06.224Z,27.37
2017-05-09T01:52:06.161Z,27.37
2017-05-09T01:53:06.096Z,27.37
2017-05-09T01:54:06.036Z,27.46
2017-05-09T01:55:05.661Z,27.37
2017-05-09T01:56:05.906Z,27.56
2017-05-09T01:57:05.845Z,27.56
2017-05-09T01:58:05.783Z,27.56
2017-05-09T01:59:05.415Z,27.46
2017-05-09T02:00:05.652Z,27.56
2017-05-09T02:01:05.591Z,27.17
2017-05-09T02:02:05.528Z,26.89
2017-05-09T02:03:05.463Z,27.37
2017-05-09T02:04:05.399Z,27.27
2017-05-09T02:05:05.033Z,27.37
2017-05-09T02:06:05.272Z,26.98
2017-05-09T02:07:05.208Z,27.17
2017-05-09T02:08:05.518Z,26.89
2017-05-09T02:09:05.081Z,27.08
2017-05-09T02:10:05.026Z,27.27
2017-05-09T02:11:05.326Z,27.27
2017-05-09T02:12:04.887Z,27.37
2017-05-09T02:13:04.828Z,27.46
2017-05-09T02:14:04.763Z,27.17
2017-05-09T02:15:04.703Z,27.08
2017-05-09T02:16:04.641Z,26.98
2017-05-09T02:17:04.574Z,26.98
2017-05-09T02:18:04.514Z,27.17
2017-05-09T02:19:04.443Z,27.17
2017-05-09T02:20:04.380Z,26.89
2017-05-09T02:21:04.318Z,27.08
2017-05-09T02:22:04.258Z,26.89
2017-05-09T02:23:04.193Z,26.98
2017-05-09T02:24:04.129Z,26.98
2017-05-09T02:25:04.218Z,27.08
2017-05-09T02:26:04.003Z,26.98
2017-05-09T02:27:03.939Z,27.08
2017-05-09T02:28:03.874Z,27.27
2017-05-09T02:29:03.811Z,26.89
2017-05-09T02:30:03.748Z,27.46
2017-05-09T02:31:03.718Z,26.79
2017-05-09T02:32:03.619Z,27.17
2017-05-09T02:33:03.559Z,26.89
2017-05-09T02:34:03.493Z,26.89
2017-05-09T02:35:03.429Z,26.98
2017-05-09T02:36:03.059Z,26.89
2017-05-09T02:37:03.303Z,26.89
2017-05-09T02:38:03.238Z,27.08
2017-05-09T02:39:03.177Z,26.98
2017-05-09T02:40:03.116Z,26.98
2017-05-09T02:41:03.051Z,26.79
2017-05-09T02:42:02.982Z,26.59
2017-05-09T02:43:02.920Z,26.79
2017-05-09T02:44:02.859Z,26.69
2017-05-09T02:45:02.795Z,26.59
2017-05-09T02:46:02.733Z,26.69
2017-05-09T02:47:02.670Z,26.79
2017-05-09T02:48:02.604Z,26.89
2017-05-09T02:49:02.537Z,26.89
2017-05-09T02:50:02.483Z,26.69
2017-05-09T02:51:02.411Z,26.59
2017-05-09T02:52:02.350Z,26.59
2017-05-09T02:53:02.293Z,26.79
2017-05-09T02:54:02.225Z,26.5
2017-05-09T02:55:02.158Z,26.69
2017-05-09T02:56:02.467Z,26.69
2017-05-09T02:57:02.401Z,26.5
2017-05-09T02:58:01.965Z,26.69
2017-05-09T02:59:01.910Z,26.69
2017-05-09T03:00:01.839Z,26.69
2017-05-09T03:01:01.777Z,26.59
2017-05-09T03:02:01.715Z,26.59
2017-05-09T03:03:01.648Z,26.5
2017-05-09T03:04:01.276Z,26.4
2017-05-09T03:05:01.528Z,26.59
2017-05-09T03:06:01.461Z,26.31
2017-05-09T03:07:01.403Z,26.4
2017-05-09T03:08:01.338Z,26.59
2017-05-09T03:09:01.280Z,26.59
2017-05-09T03:10:01.206Z,26.5
2017-05-09T03:11:01.142Z,26.5
2017-05-09T03:12:01.076Z,26.4
2017-05-09T03:13:01.016Z,26.31
2017-05-09T03:14:00.952Z,26.21
2017-05-09T03:15:00.887Z,26.5
2017-05-09T03:16:00.822Z,26.5
2017-05-09T03:17:00.764Z,26.5
2017-05-09T03:18:00.696Z,26.21
2017-05-09T03:19:00.641Z,26.4
2017-05-09T03:20:00.572Z,26.4
2017-05-09T03:21:00.503Z,26.31
2017-05-09T03:22:00.442Z,26.5
2017-05-09T03:23:00.385Z,26.5
2017-05-09T03:24:00.316Z,26.21
2017-05-09T03:25:00.254Z,26.5
2017-05-09T03:26:00.188Z,26.31
2017-05-09T03:27:00.126Z,26.21
2017-05-09T03:28:00.061Z,26.31
2017-05-09T03:29:00.000Z,26.21
2017-05-09T03:29:59.935Z,26.31
2017-05-09T03:30:59.869Z,26.21
2017-05-09T03:31:59.806Z,26.11
2017-05-09T03:32:59.743Z,26.31
2017-05-09T03:33:59.406Z,26.21
2017-05-09T03:34:59.619Z,26.21
2017-05-09T03:35:59.556Z,26.21
2017-05-09T03:36:59.491Z,26.21
2017-05-09T03:37:59.426Z,26.31
2017-05-09T03:38:59.362Z,26.4
2017-05-09T03:39:59.297Z,26.21
2017-05-09T03:40:59.234Z,26.21
2017-05-09T03:41:59.171Z,26.21
2017-05-09T03:42:59.105Z,26.21
2017-05-09T03:43:59.039Z,26.21
2017-05-09T03:44:58.982Z,26.31
2017-05-09T03:45:58.916Z,26.31
2017-05-09T03:46:58.851Z,26.21
2017-05-09T03:47:58.799Z,26.11
2017-05-09T03:48:58.726Z,26.21
2017-05-09T03:49:58.663Z,26.21
2017-05-09T03:50:58.597Z,26.21
2017-05-09T03:51:58.533Z,26.21
2017-05-09T03:52:58.473Z,26.31
2017-05-09T03:53:58.407Z,26.21
2017-05-09T03:54:58.346Z,26.21
2017-05-09T03:55:58.279Z,26.11
2017-05-09T03:56:58.214Z,26.4
2017-05-09T03:57:58.154Z,26.21
2017-05-09T03:58:58.089Z,26.31
2017-05-09T03:59:58.024Z,26.5
2017-05-09T04:00:57.962Z,26.5
2017-05-09T04:01:57.588Z,26.4
2017-05-09T04:02:57.835Z,26.4
2017-05-09T04:03:57.772Z,26.59
2017-05-09T04:04:57.706Z,26.5
2017-05-09T04:05:57.641Z,26.5
2017-05-09T04:06:57.575Z,26.78
2017-05-09T04:07:57.517Z,26.78
2017-05-09T04:08:57.454Z,27.06
2017-05-09T04:09:57.387Z,26.97
2017-05-09T04:10:57.323Z,27.26
2017-05-09T04:11:57.262Z,26.97
2017-05-09T04:12:57.197Z,27.64
2017-05-09T04:13:57.134Z,27.55
2017-05-09T04:14:57.438Z,27.26
2017-05-09T04:15:57.004Z,27.16
2017-05-09T04:16:56.940Z,27.16
2017-05-09T04:17:56.877Z,26.97
2017-05-09T04:18:56.812Z,27.45
2017-05-09T04:19:56.750Z,27.45
2017-05-09T04:20:56.680Z,27.55
2017-05-09T04:21:56.620Z,27.64
2017-05-09T04:22:56.558Z,28.13
2017-05-09T04:23:56.490Z,27.74
2017-05-09T04:24:56.432Z,28.22
2017-05-09T04:25:56.395Z,28.22
2017-05-09T04:26:56.303Z,27.83
2017-05-09T04:27:56.236Z,28.31
2017-05-09T04:28:56.176Z,28.22
2017-05-09T04:29:56.108Z,28.41
2017-05-09T04:30:56.044Z,28.31
2017-05-09T04:31:56.013Z,28.51
2017-05-09T04:32:55.918Z,28.61
2017-05-09T04:33:55.856Z,28.61
2017-05-09T04:34:55.785Z,28.51
2017-05-09T04:35:55.726Z,28.41
2017-05-09T04:36:55.663Z,28.41
2017-05-09T04:37:55.598Z,28.22
2017-05-09T04:38:55.541Z,28.31
2017-05-09T04:39:55.504Z,28.41
2017-05-09T04:40:55.403Z,28.31
2017-05-09T04:41:55.337Z,28.31
2017-05-09T04:42:55.277Z,28.31
2017-05-09T04:43:55.213Z,28.41
2017-05-09T04:44:55.150Z,28.31
2017-05-09T04:45:55.084Z,28.31
2017-05-09T04:46:55.023Z,28.7
2017-05-09T04:47:54.959Z,28.2
2017-05-09T04:48:54.897Z,28.31
2017-05-09T04:49:54.828Z,28.31
2017-05-09T04:50:54.768Z,28.22
2017-05-09T04:51:54.698Z,28.3
2017-05-09T04:52:54.638Z,28.22
2017-05-09T04:53:54.572Z,28.41
2017-05-09T04:54:54.508Z,28.61
2017-05-09T04:55:54.445Z,28.51
2017-05-09T04:56:54.378Z,28.41
2017-05-09T04:57:54.009Z,28.31
2017-05-09T04:58:54.254Z,28.13
2017-05-09T04:59:54.189Z,28.22
2017-05-09T05:00:54.125Z,28.13
2017-05-09T05:01:54.061Z,27.83
2017-05-09T05:02:53.996Z,27.64
2017-05-09T05:03:53.936Z,27.35
2017-05-09T05:04:53.867Z,27.64
2017-05-09T05:05:53.805Z,27.26
2017-05-09T05:06:53.741Z,27.35
2017-05-09T05:07:53.676Z,27.45
2017-05-09T05:08:53.611Z,27.26
2017-05-09T05:09:53.549Z,27.26
2017-05-09T05:10:53.484Z,27.06
2017-05-09T05:11:53.420Z,27.26
2017-05-09T05:12:53.358Z,26.78
2017-05-09T05:13:53.297Z,26.78
2017-05-09T05:14:53.229Z,26.68
2017-05-09T05:15:53.312Z,26.58
2017-05-09T05:16:53.102Z,26.68
2017-05-09T05:17:53.036Z,26.68
2017-05-09T05:18:52.663Z,26.58
2017-05-09T05:19:52.911Z,26.39
2017-05-09T05:20:52.873Z,26.39
2017-05-09T05:21:52.784Z,26.2
2017-05-09T05:22:52.717Z,26.2
2017-05-09T05:23:52.654Z,26.2
2017-05-09T05:24:52.590Z,26.2
2017-05-09T05:25:52.526Z,26.1
2017-05-09T05:26:52.469Z,25.91
2017-05-09T05:27:52.402Z,26
2017-05-09T05:28:52.335Z,26
2017-05-09T05:29:52.267Z,25.81
2017-05-09T05:30:51.896Z,25.91
2017-05-09T05:31:52.142Z,25.71
2017-05-09T05:32:52.081Z,25.62
2017-05-09T05:33:51.705Z,25.52
2017-05-09T05:34:51.952Z,25.52
2017-05-09T05:35:51.887Z,25.43
2017-05-09T05:36:51.516Z,25.33
2017-05-09T05:37:51.451Z,25.43
2017-05-09T05:38:51.696Z,25.33
2017-05-09T05:39:51.632Z,25.23
2017-05-09T05:40:51.570Z,25.23
2017-05-09T05:41:51.506Z,25.04
2017-05-09T05:42:51.442Z,25.04
2017-05-09T05:43:51.377Z,25.04
2017-05-09T05:44:51.003Z,24.95
2017-05-09T05:45:51.250Z,25.04
2017-05-09T05:46:51.186Z,25.04
2017-05-09T05:47:51.122Z,25.04
2017-05-09T05:48:50.747Z,24.75
2017-05-09T05:49:50.996Z,24.86
2017-05-09T05:50:50.623Z,24.66
2017-05-09T05:51:50.865Z,24.56
2017-05-09T05:52:50.803Z,24.75
2017-05-09T05:53:50.432Z,24.66
2017-05-09T05:54:50.675Z,24.56
2017-05-09T05:55:50.611Z,24.56
2017-05-09T05:56:50.240Z,24.37
2017-05-09T05:57:50.486Z,24.37
2017-05-09T05:58:50.419Z,24.08
2017-05-09T05:59:50.356Z,24.08
2017-05-09T06:00:50.292Z,24.27
2017-05-09T06:01:50.229Z,23.98
2017-05-09T06:02:50.210Z,24.37
2017-05-09T06:03:50.104Z,23.88
2017-05-09T06:04:50.040Z,23.98
2017-05-09T06:05:49.975Z,23.98
2017-05-09T06:06:50.114Z,23.88
2017-05-09T06:07:49.849Z,23.98
2017-05-09T06:08:49.785Z,23.79
2017-05-09T06:09:49.717Z,23.88
2017-05-09T06:10:49.655Z,23.69
2017-05-09T06:11:49.591Z,23.79
2017-05-09T06:12:49.538Z,23.69
2017-05-09T06:13:49.466Z,23.4
2017-05-09T06:14:49.401Z,23.5
2017-05-09T06:15:49.422Z,23.88
2017-05-09T06:16:49.270Z,23.6
2017-05-09T06:17:49.206Z,23.79
2017-05-09T06:18:49.145Z,23.6
2017-05-09T06:19:49.083Z,23.51
2017-05-09T06:20:49.017Z,23.31
2017-05-09T06:21:48.961Z,23.79
2017-05-09T06:22:48.892Z,23.6
2017-05-09T06:23:48.827Z,23.21
2017-05-09T06:24:48.765Z,23.11
2017-05-09T06:25:48.698Z,23.79
2017-05-09T06:26:48.634Z,23.4
2017-05-09T06:27:48.571Z,23.5
2017-05-09T06:28:48.505Z,23.6
2017-05-09T06:29:48.443Z,23.5
2017-05-09T06:30:48.382Z,23.4
2017-05-09T06:31:48.317Z,23.31
2017-05-09T06:32:48.253Z,23.31
2017-05-09T06:33:48.234Z,23.11
2017-05-09T06:34:48.122Z,23.11
2017-05-09T06:35:48.056Z,23.21
2017-05-09T06:36:48.011Z,23.11
2017-05-09T06:37:48.303Z,23.69
2017-05-09T06:38:47.869Z,23.4
2017-05-09T06:39:47.802Z,23.21
2017-05-09T06:40:47.741Z,23.02
2017-05-09T06:41:47.674Z,23.6
2017-05-09T06:42:47.612Z,23.31
2017-05-09T06:43:47.548Z,23.69
2017-05-09T06:44:47.482Z,23.11
2017-05-09T06:45:47.421Z,23.98
2017-05-09T06:46:47.355Z,23.31
2017-05-09T06:47:47.297Z,23.79
2017-05-09T06:48:47.226Z,23.31
2017-05-09T06:49:47.164Z,23.5
2017-05-09T06:50:47.349Z,23.79
2017-05-09T06:51:47.038Z,23.31
2017-05-09T06:52:46.974Z,23.31
2017-05-09T06:53:46.925Z,23.98
2017-05-09T06:54:46.847Z,23.4
2017-05-09T06:55:46.780Z,23.5
2017-05-09T06:56:46.717Z,23.69
2017-05-09T06:57:46.653Z,23.21
2017-05-09T06:58:46.282Z,23.79
2017-05-09T06:59:46.529Z,24.08
2017-05-09T07:00:46.461Z,24.56
2017-05-09T07:01:46.404Z,24.66
2017-05-09T07:02:46.025Z,25.23
2017-05-09T07:03:46.276Z,25.13
2017-05-09T07:04:46.208Z,25.33
2017-05-09T07:05:45.832Z,25.43
2017-05-09T07:06:46.085Z,25.81
2017-05-09T07:07:46.019Z,26.2
2017-05-09T07:08:45.948Z,26.4
2017-05-09T07:09:45.578Z,26.31
2017-05-09T07:10:45.824Z,26.59
2017-05-09T07:11:45.450Z,26.4
2017-05-09T07:12:45.699Z,27.27
2017-05-09T07:13:45.323Z,26.98
2017-05-09T07:14:45.570Z,27.27
2017-05-09T07:15:45.506Z,26.98
2017-05-09T07:16:45.131Z,27.66
2017-05-09T07:17:45.748Z,27.46
2017-05-09T07:18:45.351Z,27.75
2017-05-09T07:19:45.249Z,27.66
2017-05-09T07:20:45.187Z,28.04
2017-05-09T07:21:45.156Z,27.75
2017-05-09T07:22:45.061Z,28.23
2017-05-09T07:23:44.997Z,28.04
2017-05-09T07:24:44.933Z,27.85
2017-05-09T07:25:44.874Z,27.75
2017-05-09T07:26:44.809Z,28.04
2017-05-09T07:27:44.742Z,28.23
2017-05-09T07:28:44.677Z,28.42
2017-05-09T07:29:44.613Z,28.14
2017-05-09T07:30:44.573Z,28.15
2017-05-09T07:31:44.486Z,28.33
2017-05-09T07:32:44.427Z,28.23
2017-05-09T07:33:44.361Z,27.75
2017-05-09T07:34:44.303Z,28.33
2017-05-09T07:35:44.232Z,28.14
2017-05-09T07:36:44.168Z,28.62
2017-05-09T07:37:43.797Z,28.34
2017-05-09T07:38:44.041Z,28.63
2017-05-09T07:39:43.673Z,27.67
2017-05-09T07:40:43.606Z,28.34
2017-05-09T07:41:43.886Z,28.63
2017-05-09T07:42:43.791Z,28.53
2017-05-09T07:43:43.724Z,28.53
2017-05-09T07:44:43.664Z,28.34
2017-05-09T07:45:43.596Z,28.63
2017-05-09T07:46:43.534Z,28.44
2017-05-09T07:47:43.468Z,28.44
2017-05-09T07:48:43.410Z,28.44
2017-05-09T07:49:43.343Z,27.86
2017-05-09T07:50:43.282Z,28.34
2017-05-09T07:51:43.215Z,28.53
2017-05-09T07:52:43.154Z,28.53
2017-05-09T07:53:42.782Z,28.34
2017-05-09T07:54:42.720Z,28.34
2017-05-09T07:55:42.656Z,28.15
2017-05-09T07:56:42.904Z,27.57
2017-05-09T07:57:42.845Z,28.15
2017-05-09T07:58:42.773Z,28.05
2017-05-09T07:59:42.714Z,27.67
2017-05-09T08:00:42.656Z,28.15
2017-05-09T08:01:42.589Z,27.96
2017-05-09T08:02:42.527Z,28.44
2017-05-09T08:03:42.459Z,26.7
2017-05-09T08:04:42.398Z,26.22
2017-05-09T08:05:42.336Z,25.74
2017-05-09T08:06:42.274Z,25.07
2017-05-09T08:07:42.210Z,24.87
2017-05-09T08:08:42.143Z,24.29
2017-05-09T08:09:42.080Z,24.19
2017-05-09T08:10:42.017Z,24.48
2017-05-09T08:11:41.952Z,24.38
2017-05-09T08:12:41.893Z,24.19
2017-05-09T08:13:41.826Z,24.09
2017-05-09T08:14:41.766Z,24.09
2017-05-09T08:15:41.699Z,24.09
2017-05-09T08:16:41.334Z,24.19
2017-05-09T08:17:41.576Z,24.09
2017-05-09T08:18:41.518Z,24.09
2017-05-09T08:19:41.449Z,24.38
2017-05-09T08:20:41.380Z,24.28
2017-05-09T08:21:41.321Z,24.28
2017-05-09T08:22:41.277Z,24.28
2017-05-09T08:23:41.197Z,24.28
2017-05-09T08:24:41.131Z,24.57
2017-05-09T08:25:41.064Z,24.38
2017-05-09T08:26:40.999Z,24.37
2017-05-09T08:27:40.939Z,24.66
2017-05-09T08:28:40.871Z,24.56
2017-05-09T08:29:40.809Z,24.56
2017-05-09T08:30:40.746Z,24.85
2017-05-09T08:31:40.436Z,24.95
2017-05-09T08:32:40.619Z,24.66
2017-05-09T08:33:40.247Z,24.75
2017-05-09T08:34:40.493Z,24.75
2017-05-09T08:35:40.208Z,24.95
2017-05-09T08:36:40.365Z,24.95
2017-05-09T08:37:40.301Z,24.75
2017-05-09T08:38:40.236Z,24.85
2017-05-09T08:39:39.861Z,24.85
2017-05-09T08:40:40.110Z,24.85
2017-05-09T08:41:39.731Z,24.75
2017-05-09T08:42:39.982Z,24.85
2017-05-09T08:43:39.912Z,24.75
2017-05-09T08:44:39.854Z,24.75
2017-05-09T08:45:39.792Z,24.66
2017-05-09T08:46:39.748Z,24.85
2017-05-09T08:47:39.660Z,24.66
2017-05-09T08:48:39.596Z,24.66
2017-05-09T08:49:39.530Z,24.75
2017-05-09T08:50:39.467Z,24.66
2017-05-09T08:51:39.448Z,24.85
2017-05-09T08:52:39.342Z,24.75
2017-05-09T08:53:39.280Z,24.46
2017-05-09T08:54:39.209Z,24.85
2017-05-09T08:55:39.149Z,24.67
2017-05-09T08:56:39.084Z,24.48
2017-05-09T08:57:38.708Z,24.48
2017-05-09T08:58:38.957Z,24.38
2017-05-09T08:59:38.896Z,24.48
2017-05-09T09:00:39.081Z,24.38
2017-05-09T09:01:38.770Z,24.28
2017-05-09T09:02:38.698Z,24.67
2017-05-09T09:03:38.636Z,24.28
2017-05-09T09:04:38.576Z,24.48
2017-05-09T09:05:38.605Z,24.28
2017-05-09T09:06:38.446Z,24.57
2017-05-09T09:07:38.381Z,24.57
2017-05-09T09:08:38.010Z,24.38
2017-05-09T09:09:38.253Z,24.67
2017-05-09T09:10:38.190Z,24.48
2017-05-09T09:11:37.822Z,24.28
2017-05-09T09:12:38.078Z,24.57
2017-05-09T09:13:38.371Z,24.28
2017-05-09T09:14:38.038Z,24.57
2017-05-09T09:15:37.911Z,24.48
2017-05-09T09:16:37.806Z,24.38
2017-05-09T09:17:37.746Z,24.57
2017-05-09T09:18:37.693Z,24.38
2017-05-09T09:19:37.620Z,24.08
2017-05-09T09:20:37.553Z,24.37
2017-05-09T09:21:37.526Z,24.37
2017-05-09T09:22:37.464Z,24.08
2017-05-09T09:23:37.360Z,24.46
2017-05-09T09:24:37.299Z,24.27
2017-05-09T09:25:37.299Z,24.27
2017-05-09T09:26:37.382Z,24.18
2017-05-09T09:27:37.164Z,24.18
2017-05-09T09:28:37.139Z,24.37
2017-05-09T09:29:36.668Z,24.46
2017-05-09T09:30:36.917Z,24.18
2017-05-09T09:31:36.853Z,24.46
2017-05-09T09:32:36.801Z,24.46
2017-05-09T09:33:36.751Z,24.56
2017-05-09T09:34:36.733Z,24.27
2017-05-09T09:35:36.286Z,24.27
2017-05-09T09:36:36.533Z,24.37
2017-05-09T09:37:36.493Z,24.37
2017-05-09T09:38:36.405Z,24.37
2017-05-09T09:39:36.341Z,24.19
2017-05-09T09:40:36.275Z,24.19
2017-05-09T09:41:35.906Z,23.99
2017-05-09T09:42:36.153Z,24.48
2017-05-09T09:43:36.084Z,24.09
2017-05-09T09:44:35.709Z,24.09
2017-05-09T09:45:36.327Z,23.99
2017-05-09T09:46:35.891Z,24.19
2017-05-09T09:47:35.828Z,24.09
2017-05-09T09:48:35.764Z,24.09
2017-05-09T09:49:35.700Z,23.99
2017-05-09T09:50:35.634Z,24.09
2017-05-09T09:51:35.573Z,24.09
2017-05-09T09:52:35.508Z,23.99
2017-05-09T09:53:35.448Z,23.9
2017-05-09T09:54:35.382Z,24.09
2017-05-09T09:55:35.313Z,23.61
2017-05-09T09:56:35.253Z,23.71
2017-05-09T09:57:35.188Z,23.8
2017-05-09T09:58:35.129Z,23.8
2017-05-09T09:59:34.751Z,23.61
2017-05-09T10:00:35.210Z,23.8
2017-05-09T10:01:34.628Z,23.41
2017-05-09T10:02:34.876Z,23.71
2017-05-09T10:03:34.807Z,23.32
2017-05-09T10:04:34.743Z,23.51
2017-05-09T10:05:34.520Z,23.9
2017-05-09T10:06:34.612Z,23.71
2017-05-09T10:07:34.551Z,23.41
2017-05-09T10:08:34.486Z,23.41
2017-05-09T10:09:34.426Z,23.51
2017-05-09T10:10:34.462Z,23.71
2017-05-09T10:11:34.307Z,23.51
2017-05-09T10:12:34.235Z,23.61
2017-05-09T10:13:34.169Z,23.51
2017-05-09T10:14:34.105Z,23.51
2017-05-09T10:15:34.043Z,23.32
2017-05-09T10:16:33.980Z,23.13
2017-05-09T10:17:33.916Z,23.03
2017-05-09T10:18:33.544Z,23.13
2017-05-09T10:19:34.171Z,23.22
2017-05-09T10:20:33.416Z,23.22
2017-05-09T10:21:33.358Z,23.41
2017-05-09T10:22:33.600Z,23.61
2017-05-09T10:23:33.535Z,22.75
2017-05-09T10:24:33.475Z,22.75
2017-05-09T10:25:33.410Z,22.85
2017-05-09T10:26:33.353Z,22.85
2017-05-09T10:27:33.284Z,22.75
2017-05-09T10:28:33.221Z,22.93
2017-05-09T10:29:33.160Z,22.85
2017-05-09T10:30:33.092Z,23.03
2017-05-09T10:31:33.038Z,22.93
2017-05-09T10:32:32.973Z,23.03
2017-05-09T10:33:32.909Z,23.03
2017-05-09T10:34:32.848Z,23.04
2017-05-09T10:35:33.176Z,22.93
2017-05-09T10:36:32.714Z,23.03
2017-05-09T10:37:32.651Z,23.03
2017-05-09T10:38:32.585Z,23.03
2017-05-09T10:39:32.524Z,23.03
2017-05-09T10:40:32.462Z,23.04
2017-05-09T10:41:32.396Z,23.04
2017-05-09T10:42:32.336Z,23.04
2017-05-09T10:43:32.268Z,23.03
2017-05-09T10:44:32.575Z,22.93
2017-05-09T10:45:32.144Z,23.03
2017-05-09T10:46:32.076Z,23.04
2017-05-09T10:47:32.015Z,23.04
2017-05-09T10:48:31.957Z,22.93
2017-05-09T10:49:31.889Z,22.93
2017-05-09T10:50:31.515Z,23.03
2017-05-09T10:51:31.771Z,22.93
2017-05-09T10:52:31.391Z,22.36
2017-05-09T10:53:31.636Z,22.84
2017-05-09T10:54:31.580Z,22.94
2017-05-09T10:55:31.510Z,22.84
2017-05-09T10:56:31.441Z,22.93
2017-05-09T10:57:31.394Z,22.85
2017-05-09T10:58:31.325Z,23.03
2017-05-09T10:59:31.627Z,23.33
2017-05-09T11:00:31.188Z,23.32
2017-05-09T11:01:31.123Z,23.72
2017-05-09T11:02:31.063Z,22.66
2017-05-09T11:03:31.000Z,22.85
2017-05-09T11:04:31.146Z,23.72
2017-05-09T11:05:30.870Z,22.75
2017-05-09T11:06:30.808Z,22.94
2017-05-09T11:07:30.746Z,22.85
2017-05-09T11:08:30.682Z,22.85
2017-05-09T11:09:30.616Z,23.72
2017-05-09T11:10:30.554Z,23.72
2017-05-09T11:11:30.492Z,22.85
2017-05-09T11:12:30.424Z,22.85
2017-05-09T11:13:30.365Z,22.85
2017-05-09T11:14:30.299Z,22.94
2017-05-09T11:15:30.235Z,22.94
2017-05-09T11:16:30.174Z,22.94
2017-05-09T11:17:30.113Z,22.94
2017-05-09T11:18:30.045Z,23.03
2017-05-09T11:19:29.674Z,23.03
2017-05-09T11:20:29.918Z,23.03
2017-05-09T11:21:29.858Z,22.84
2017-05-09T11:22:29.792Z,23.04
2017-05-09T11:23:29.728Z,23.04
2017-05-09T11:24:29.663Z,22.94
2017-05-09T11:25:29.599Z,22.94
2017-05-09T11:26:29.534Z,23.14
2017-05-09T11:27:29.476Z,22.85
2017-05-09T11:28:29.410Z,23.04
2017-05-09T11:29:29.353Z,23.04
2017-05-09T11:30:29.282Z,23.04
2017-05-09T11:31:29.593Z,22.85
2017-05-09T11:32:29.158Z,22.94
2017-05-09T11:33:29.094Z,22.85
2017-05-09T11:34:29.027Z,22.94
2017-05-09T11:35:28.966Z,22.94
2017-05-09T11:36:28.903Z,22.94
2017-05-09T11:37:28.840Z,23.03
2017-05-09T11:38:28.469Z,23.03
2017-05-09T11:39:28.713Z,23.03
2017-05-09T11:40:28.651Z,23.03
2017-05-09T11:41:28.585Z,22.93
2017-05-09T11:42:28.523Z,22.84
2017-05-09T11:43:28.459Z,22.93
2017-05-09T11:44:28.767Z,23.13
2017-05-09T11:45:28.330Z,22.74
2017-05-09T11:46:28.267Z,22.74
2017-05-09T11:47:28.203Z,22.74
2017-05-09T11:48:28.147Z,23.24
2017-05-09T11:49:28.081Z,23.32
2017-05-09T11:50:28.018Z,23.13
2017-05-09T11:51:27.951Z,22.84
2017-05-09T11:52:27.890Z,23.13
2017-05-09T11:53:27.822Z,23.03
2017-05-09T11:54:27.759Z,23.03
2017-05-09T11:55:27.698Z,23.13
2017-05-09T11:56:27.634Z,23.03
2017-05-09T11:57:27.572Z,23.14
2017-05-09T11:58:27.510Z,23.03
2017-05-09T11:59:27.441Z,23.41
2017-05-09T12:00:27.379Z,23.32
2017-05-09T12:01:27.383Z,23.32
2017-05-09T12:02:27.261Z,23.32
2017-05-09T12:03:27.188Z,23.43
2017-05-09T12:04:27.164Z,23.62
2017-05-09T12:05:27.459Z,23.32
2017-05-09T12:06:26.997Z,23.41
2017-05-09T12:07:26.932Z,23.99
2017-05-09T12:08:26.872Z,23.61
2017-05-09T12:09:26.805Z,23.8
2017-05-09T12:10:26.745Z,23.8
2017-05-09T12:11:26.678Z,23.8
2017-05-09T12:12:26.628Z,24.19
2017-05-09T12:13:26.557Z,24.38
2017-05-09T12:14:26.493Z,24.09
2017-05-09T12:15:26.431Z,24.19
2017-05-09T12:16:26.359Z,24.28
2017-05-09T12:17:26.314Z,24.48
2017-05-09T12:18:26.232Z,24.48
2017-05-09T12:19:25.880Z,24.67
2017-05-09T12:20:25.799Z,24.67
2017-05-09T12:21:26.039Z,24.76
2017-05-09T12:22:25.980Z,24.76
2017-05-09T12:23:25.914Z,25.05
2017-05-09T12:24:25.856Z,25.15
2017-05-09T12:25:25.782Z,25.05
2017-05-09T12:26:25.723Z,25.05
2017-05-09T12:27:25.657Z,25.24
2017-05-09T12:28:25.828Z,25.05
2017-05-09T12:29:25.538Z,25.04
2017-05-09T12:30:25.463Z,25.23
2017-05-09T12:31:25.405Z,25.23
2017-05-09T12:32:25.339Z,25.33
2017-05-09T12:33:25.293Z,25.13
2017-05-09T12:34:25.212Z,25.23
2017-05-09T12:35:25.147Z,25.23
2017-05-09T12:36:25.077Z,25.33
2017-05-09T12:37:25.401Z,25.33
2017-05-09T12:38:24.952Z,25.23
2017-05-09T12:39:24.889Z,25.43
2017-05-09T12:40:24.683Z,25.43
2017-05-09T12:41:24.759Z,25.52
2017-05-09T12:42:24.790Z,25.43
2017-05-09T12:43:24.630Z,25.52
2017-05-09T12:44:24.583Z,25.43
2017-05-09T12:45:24.754Z,25.33
2017-05-09T12:46:24.238Z,25.33
2017-05-09T12:47:24.590Z,25.43
2017-05-09T12:48:24.308Z,25.23
2017-05-09T12:49:24.002Z,25.23
2017-05-09T12:50:24.121Z,25.34
2017-05-09T12:51:23.884Z,25.34
2017-05-09T12:52:24.060Z,25.34
2017-05-09T12:53:23.991Z,25.34
2017-05-09T12:54:23.945Z,25.34